createdAt,value
2023-03-20T00:01:01.776Z,12.61
2023-03-20T00:02:06.719Z,12.57
2023-03-20T00:03:13.199Z,12.48
2023-03-20T00:04:16.245Z,12.42
2023-03-20T00:05:22.472Z,12.41
2023-03-20T00:06:27.134Z,12.38
2023-03-20T00:07:29.851Z,12.38
2023-03-20T00:08:33.465Z,12.34
2023-03-20T00:09:36.695Z,12.33
2023-03-20T00:10:44.888Z,12.34
2023-03-20T00:11:52.823Z,12.31
2023-03-20T00:12:55.879Z,12.33
2023-03-20T00:14:20.441Z,12.37
2023-03-20T00:15:23.015Z,12.36
2023-03-20T00:16:28.820Z,12.36
2023-03-20T00:17:31.535Z,12.38
2023-03-20T00:18:34.180Z,12.40
2023-03-20T00:19:36.848Z,12.41
2023-03-20T00:20:39.498Z,12.41
2023-03-20T00:21:42.266Z,12.41
2023-03-20T00:22:45.019Z,12.44
2023-03-20T00:23:48.808Z,12.44
2023-03-20T00:24:51.714Z,12.42
2023-03-20T00:25:54.388Z,12.45
2023-03-20T00:26:57.130Z,12.38
2023-03-20T00:28:00.829Z,12.41
2023-03-20T00:29:06.226Z,12.41
2023-03-20T00:30:32.411Z,12.44
2023-03-20T00:31:39.919Z,12.42
2023-03-20T00:32:43.043Z,12.40
2023-03-20T00:33:46.587Z,12.42
2023-03-20T00:34:49.233Z,12.42
2023-03-20T00:35:52.314Z,12.40
2023-03-20T00:36:55.520Z,12.38
2023-03-20T00:37:59.382Z,12.38
2023-03-20T00:39:02.958Z,12.37
2023-03-20T00:40:06.248Z,12.40
2023-03-20T00:41:31.353Z,12.37
2023-03-20T00:42:34.082Z,12.42
2023-03-20T00:43:36.744Z,12.42
2023-03-20T00:44:50.628Z,12.41
2023-03-20T00:45:53.456Z,12.41
2023-03-20T00:46:59.391Z,12.40
2023-03-20T00:48:02.976Z,12.41
2023-03-20T00:49:05.675Z,12.36
2023-03-20T00:50:17.103Z,12.37
2023-03-20T00:51:20.591Z,12.37
2023-03-20T00:52:24.417Z,12.36
2023-03-20T00:53:27.108Z,12.31
2023-03-20T00:54:30.221Z,12.31
2023-03-20T00:55:32.985Z,12.31
2023-03-20T00:56:44.956Z,12.31
2023-03-20T00:57:56.721Z,12.27
2023-03-20T00:59:01.438Z,12.29
2023-03-20T01:00:20.051Z,12.27
2023-03-20T01:01:22.825Z,12.24
2023-03-20T01:02:30.033Z,12.26
2023-03-20T01:03:33.278Z,12.24
2023-03-20T01:04:39.467Z,12.24
2023-03-20T01:05:42.547Z,12.21
2023-03-20T01:06:46.221Z,12.21
2023-03-20T01:07:49.446Z,12.21
2023-03-20T01:08:52.094Z,12.20
2023-03-20T01:09:54.731Z,12.21
2023-03-20T01:10:59.744Z,12.21
2023-03-20T01:12:03.390Z,12.21
2023-03-20T01:13:10.990Z,12.21
2023-03-20T01:14:16.634Z,12.20
2023-03-20T01:15:23.711Z,12.20
2023-03-20T01:16:28.290Z,12.17
2023-03-20T01:17:31.530Z,12.20
2023-03-20T01:18:34.181Z,12.17
2023-03-20T01:19:37.557Z,12.20
2023-03-20T01:20:40.474Z,12.20
2023-03-20T01:21:43.953Z,12.20
2023-03-20T01:22:46.750Z,12.10
2023-03-20T01:23:50.831Z,12.13
2023-03-20T01:24:53.513Z,12.10
2023-03-20T01:25:56.147Z,12.10
2023-03-20T01:26:59.369Z,12.14
2023-03-20T01:28:02.449Z,12.13
2023-03-20T01:29:14.581Z,12.12
2023-03-20T01:30:21.857Z,12.10
2023-03-20T01:31:24.713Z,12.14
2023-03-20T01:32:27.539Z,12.16
2023-03-20T01:33:30.528Z,12.10
2023-03-20T01:34:33.187Z,12.12
2023-03-20T01:35:36.174Z,12.06
2023-03-20T01:36:40.353Z,12.04
2023-03-20T01:37:43.363Z,12.04
2023-03-20T01:38:46.353Z,11.99
2023-03-20T01:39:49.034Z,12.01
2023-03-20T01:40:54.692Z,11.93
2023-03-20T01:41:57.406Z,11.92
2023-03-20T01:43:00.463Z,11.90
2023-03-20T01:44:18.203Z,11.90
2023-03-20T01:45:26.077Z,11.89
2023-03-20T01:46:32.847Z,11.87
2023-03-20T01:47:35.697Z,11.86
2023-03-20T01:49:01.375Z,11.86
2023-03-20T01:50:24.545Z,11.78
2023-03-20T01:51:34.061Z,11.82
2023-03-20T01:52:36.697Z,11.82
2023-03-20T01:53:39.453Z,11.80
2023-03-20T01:54:42.163Z,11.80
2023-03-20T01:55:47.761Z,11.83
2023-03-20T01:57:01.458Z,11.83
2023-03-20T01:58:09.385Z,11.79
2023-03-20T01:59:19.266Z,11.79
2023-03-20T02:00:22.566Z,11.80
2023-03-20T02:01:27.291Z,11.79
2023-03-20T02:02:32.814Z,11.79
2023-03-20T02:03:35.784Z,11.73
2023-03-20T02:04:44.024Z,11.76
2023-03-20T02:05:47.304Z,11.79
2023-03-20T02:06:50.030Z,11.75
2023-03-20T02:08:02.580Z,11.73
2023-03-20T02:09:05.749Z,11.72
2023-03-20T02:10:15.572Z,11.72
2023-03-20T02:11:21.020Z,11.72
2023-03-20T02:12:23.896Z,11.71
2023-03-20T02:13:28.870Z,11.71
2023-03-20T02:14:33.802Z,11.69
2023-03-20T02:15:37.521Z,11.69
2023-03-20T02:16:40.495Z,11.69
2023-03-20T02:17:44.605Z,11.72
2023-03-20T02:18:50.885Z,11.71
2023-03-20T02:20:13.614Z,11.71
2023-03-20T02:21:34.178Z,11.66
2023-03-20T02:22:46.097Z,11.63
2023-03-20T02:24:13.175Z,11.65
2023-03-20T02:25:21.773Z,11.58
2023-03-20T02:26:56.519Z,11.58
2023-03-20T02:28:40.255Z,11.57
2023-03-20T02:30:00.613Z,11.54
2023-03-20T02:31:40.659Z,11.55
2023-03-20T02:32:58.656Z,11.55
2023-03-20T02:34:38.285Z,11.57
2023-03-20T02:36:04.878Z,11.51
2023-03-20T02:37:28.324Z,11.52
2023-03-20T02:38:43.104Z,11.48
2023-03-20T02:40:26.226Z,11.46
2023-03-20T02:41:55.499Z,11.44
2023-03-20T02:43:16.197Z,11.41
2023-03-20T02:44:34.543Z,11.41
2023-03-20T02:45:58.964Z,11.35
2023-03-20T02:47:15.810Z,11.30
2023-03-20T02:48:41.751Z,11.25
2023-03-20T02:49:56.581Z,11.25
2023-03-20T02:51:05.282Z,11.24
2023-03-20T02:52:22.249Z,11.17
2023-03-20T02:53:53.937Z,11.14
2023-03-20T02:54:56.540Z,11.14
2023-03-20T02:56:14.133Z,11.11
2023-03-20T02:57:48.658Z,11.03
2023-03-20T02:59:16.983Z,11.01
2023-03-20T03:00:31.439Z,10.97
2023-03-20T03:01:43.245Z,10.94
2023-03-20T03:02:54.179Z,10.89
2023-03-20T03:04:09.779Z,10.90
2023-03-20T03:05:23.701Z,10.86
2023-03-20T03:06:31.000Z,10.83
2023-03-20T03:07:36.309Z,10.79
2023-03-20T03:08:44.293Z,10.76
2023-03-20T03:10:08.125Z,10.72
2023-03-20T03:11:11.455Z,10.65
2023-03-20T03:12:21.029Z,10.65
2023-03-20T03:13:30.382Z,10.56
2023-03-20T03:14:38.844Z,10.53
2023-03-20T03:15:46.547Z,10.49
2023-03-20T03:16:52.849Z,10.52
2023-03-20T03:17:59.239Z,10.50
2023-03-20T03:19:13.236Z,10.44
2023-03-20T03:20:25.812Z,10.42
2023-03-20T03:21:31.213Z,10.35
2023-03-20T03:22:35.567Z,10.34
2023-03-20T03:23:46.492Z,10.32
2023-03-20T03:24:52.182Z,10.31
2023-03-20T03:25:58.691Z,10.26
2023-03-20T03:27:04.746Z,10.21
2023-03-20T03:28:38.084Z,10.19
2023-03-20T03:29:42.179Z,10.16
2023-03-20T03:30:46.359Z,10.11
2023-03-20T03:31:50.060Z,10.08
2023-03-20T03:33:11.053Z,10.02
2023-03-20T03:34:17.141Z,9.98
2023-03-20T03:35:22.391Z,9.95
2023-03-20T03:37:16.551Z,9.91
2023-03-20T03:38:31.061Z,9.88
2023-03-20T03:39:54.431Z,9.84
2023-03-20T03:41:12.112Z,9.81
2023-03-20T03:42:27.099Z,9.77
2023-03-20T03:43:42.972Z,9.73
2023-03-20T03:45:19.423Z,9.69
2023-03-20T03:46:45.832Z,9.63
2023-03-20T03:47:55.227Z,9.60
2023-03-20T03:49:00.262Z,9.58
2023-03-20T03:50:10.683Z,9.56
2023-03-20T03:51:17.049Z,9.53
2023-03-20T03:52:24.260Z,9.47
2023-03-20T03:53:33.419Z,9.44
2023-03-20T03:54:42.506Z,9.43
2023-03-20T03:55:51.870Z,9.40
2023-03-20T03:56:57.308Z,9.39
2023-03-20T03:58:05.808Z,9.37
2023-03-20T03:59:18.563Z,9.36
2023-03-20T04:00:26.157Z,9.35
2023-03-20T04:01:30.533Z,9.29
2023-03-20T04:02:34.222Z,9.29
2023-03-20T04:03:41.768Z,9.26
2023-03-20T04:04:48.101Z,9.26
2023-03-20T04:05:54.744Z,9.25
2023-03-20T04:06:57.484Z,9.20
2023-03-20T04:08:02.380Z,9.20
2023-03-20T04:09:05.198Z,9.22
2023-03-20T04:10:08.648Z,9.18
2023-03-20T04:11:23.748Z,9.16
2023-03-20T04:12:39.074Z,9.12
2023-03-20T04:13:41.769Z,9.12
2023-03-20T04:14:44.452Z,9.11
2023-03-20T04:15:47.267Z,9.15
2023-03-20T04:16:49.974Z,9.12
2023-03-20T04:17:52.704Z,9.11
2023-03-20T04:18:56.802Z,9.07
2023-03-20T04:19:59.523Z,9.07
2023-03-20T04:21:02.717Z,9.07
2023-03-20T04:22:05.373Z,9.07
2023-03-20T04:23:08.712Z,9.07
2023-03-20T04:24:11.736Z,9.08
2023-03-20T04:25:24.134Z,9.04
2023-03-20T04:26:26.852Z,9.04
2023-03-20T04:27:30.077Z,9.01
2023-03-20T04:28:32.733Z,8.98
2023-03-20T04:29:37.522Z,9.01
2023-03-20T04:30:41.753Z,8.95
2023-03-20T04:31:44.449Z,8.93
2023-03-20T04:32:47.235Z,8.92
2023-03-20T04:33:49.937Z,8.92
2023-03-20T04:34:53.249Z,8.92
2023-03-20T04:35:56.350Z,8.84
2023-03-20T04:36:59.094Z,8.81
2023-03-20T04:38:01.733Z,8.84
2023-03-20T04:39:04.456Z,8.79
2023-03-20T04:40:07.500Z,8.79
2023-03-20T04:41:13.264Z,8.82
2023-03-20T04:42:15.993Z,8.75
2023-03-20T04:43:18.830Z,8.75
2023-03-20T04:44:21.650Z,8.71
2023-03-20T04:45:24.293Z,8.72
2023-03-20T04:46:27.525Z,8.68
2023-03-20T04:47:30.210Z,8.64
2023-03-20T04:48:33.029Z,8.57
2023-03-20T04:49:35.728Z,8.58
2023-03-20T04:50:38.618Z,8.54
2023-03-20T04:51:41.640Z,8.51
2023-03-20T04:52:44.426Z,8.50
2023-03-20T04:53:47.070Z,8.49
2023-03-20T04:54:49.809Z,8.46
2023-03-20T04:55:52.459Z,8.44
2023-03-20T04:56:55.098Z,8.49
2023-03-20T04:57:57.856Z,8.49
2023-03-20T04:59:00.489Z,8.46
2023-03-20T05:00:03.175Z,8.46
2023-03-20T05:01:06.728Z,8.44
2023-03-20T05:02:09.615Z,8.41
2023-03-20T05:03:12.377Z,8.44
2023-03-20T05:04:15.110Z,8.39
2023-03-20T05:05:17.913Z,8.32
2023-03-20T05:06:20.689Z,8.29
2023-03-20T05:07:23.759Z,8.32
2023-03-20T05:08:26.939Z,8.28
2023-03-20T05:09:29.602Z,8.23
2023-03-20T05:10:32.815Z,8.23
2023-03-20T05:11:35.526Z,8.25
2023-03-20T05:12:38.236Z,8.26
2023-03-20T05:13:40.893Z,8.23
2023-03-20T05:14:43.574Z,8.22
2023-03-20T05:15:46.236Z,8.20
2023-03-20T05:16:49.083Z,8.19
2023-03-20T05:17:51.963Z,8.22
2023-03-20T05:18:54.685Z,8.19
2023-03-20T05:19:58.375Z,8.20
2023-03-20T05:21:01.021Z,8.17
2023-03-20T05:22:03.781Z,8.14
2023-03-20T05:23:06.765Z,8.13
2023-03-20T05:24:09.588Z,8.13
2023-03-20T05:25:12.226Z,8.14
2023-03-20T05:26:14.862Z,8.12
2023-03-20T05:27:17.600Z,8.09
2023-03-20T05:28:20.255Z,8.06
2023-03-20T05:29:23.964Z,8.07
2023-03-20T05:30:26.887Z,8.03
2023-03-20T05:31:29.686Z,8.03
2023-03-20T05:32:32.456Z,8.03
2023-03-20T05:33:37.964Z,8.03
2023-03-20T05:34:40.885Z,8.03
2023-03-20T05:35:43.548Z,8.03
2023-03-20T05:36:46.654Z,8.03
2023-03-20T05:37:49.409Z,8.06
2023-03-20T05:38:52.028Z,8.12
2023-03-20T05:39:54.650Z,8.10
2023-03-20T05:41:01.528Z,8.10
2023-03-20T05:42:04.389Z,8.06
2023-03-20T05:43:07.254Z,8.07
2023-03-20T05:44:09.976Z,8.10
2023-03-20T05:45:12.857Z,8.07
2023-03-20T05:46:15.538Z,8.05
2023-03-20T05:47:18.395Z,8.06
2023-03-20T05:48:21.075Z,8.05
2023-03-20T05:49:23.724Z,8.05
2023-03-20T05:50:26.534Z,8.03
2023-03-20T05:51:29.218Z,8.05
2023-03-20T05:52:32.878Z,8.06
2023-03-20T05:53:35.955Z,8.07
2023-03-20T05:54:38.636Z,8.07
2023-03-20T05:55:42.627Z,8.07
2023-03-20T05:56:45.325Z,8.12
2023-03-20T05:57:48.086Z,8.16
2023-03-20T05:58:50.821Z,8.13
2023-03-20T05:59:53.688Z,8.17
2023-03-20T06:00:59.371Z,8.13
2023-03-20T06:02:02.442Z,8.16
2023-03-20T06:03:05.476Z,8.19
2023-03-20T06:04:09.586Z,8.25
2023-03-20T06:05:12.284Z,8.25
2023-03-20T06:06:14.983Z,8.26
2023-03-20T06:07:17.625Z,8.28
2023-03-20T06:08:20.896Z,8.34
2023-03-20T06:09:57.386Z,8.33
2023-03-20T06:11:00.152Z,8.41
2023-03-20T06:12:03.230Z,8.44
2023-03-20T06:13:05.993Z,8.50
2023-03-20T06:14:08.668Z,8.50
2023-03-20T06:15:11.686Z,8.50
2023-03-20T06:16:15.471Z,8.56
2023-03-20T06:17:18.225Z,8.60
2023-03-20T06:18:21.105Z,8.64
2023-03-20T06:19:24.006Z,8.70
2023-03-20T06:20:27.289Z,8.72
2023-03-20T06:21:29.942Z,8.81
2023-03-20T06:22:33.453Z,8.85
2023-03-20T06:23:36.126Z,8.91
2023-03-20T06:24:39.323Z,8.98
2023-03-20T06:25:42.012Z,9.04
2023-03-20T06:26:45.122Z,9.07
2023-03-20T06:27:48.921Z,9.11
2023-03-20T06:28:51.543Z,9.18
2023-03-20T06:29:54.230Z,9.25
2023-03-20T06:30:57.076Z,9.25
2023-03-20T06:31:59.792Z,9.28
2023-03-20T06:33:03.067Z,9.29
2023-03-20T06:34:05.954Z,9.29
2023-03-20T06:35:08.941Z,9.33
2023-03-20T06:36:11.960Z,9.36
2023-03-20T06:37:14.599Z,9.39
2023-03-20T06:38:17.756Z,9.42
2023-03-20T06:39:20.425Z,9.44
2023-03-20T06:40:23.603Z,9.47
2023-03-20T06:41:34.187Z,9.50
2023-03-20T06:42:37.382Z,9.57
2023-03-20T06:43:40.663Z,9.63
2023-03-20T06:44:44.252Z,9.67
2023-03-20T06:45:46.930Z,9.73
2023-03-20T06:46:49.679Z,9.77
2023-03-20T06:47:52.346Z,9.84
2023-03-20T06:48:55.026Z,9.87
2023-03-20T06:49:57.636Z,9.94
2023-03-20T06:52:22.733Z,9.98
2023-03-20T06:53:25.559Z,10.07
2023-03-20T06:54:28.489Z,10.15
2023-03-20T06:55:31.164Z,10.16
2023-03-20T06:56:33.863Z,10.26
2023-03-20T06:57:36.513Z,10.32
2023-03-20T06:58:39.932Z,10.36
2023-03-20T06:59:42.633Z,10.42
2023-03-20T07:00:46.037Z,10.48
2023-03-20T07:01:48.826Z,10.50
2023-03-20T07:02:51.482Z,10.62
2023-03-20T07:03:54.544Z,10.69
2023-03-20T07:04:57.202Z,10.73
2023-03-20T07:05:59.864Z,10.84
2023-03-20T07:07:03.112Z,10.89
2023-03-20T07:08:06.268Z,10.96
2023-03-20T07:09:08.976Z,11.01
2023-03-20T07:10:13.442Z,11.07
2023-03-20T07:11:16.463Z,11.18
2023-03-20T07:12:21.129Z,11.21
2023-03-20T07:13:23.854Z,11.28
2023-03-20T07:14:26.809Z,11.34
2023-03-20T07:15:31.088Z,11.41
2023-03-20T07:16:33.765Z,11.46
2023-03-20T07:17:36.762Z,11.52
2023-03-20T07:18:39.429Z,11.55
2023-03-20T07:19:42.538Z,11.61
2023-03-20T07:20:45.140Z,11.65
2023-03-20T07:21:48.201Z,11.68
2023-03-20T07:22:50.987Z,11.72
2023-03-20T07:23:53.717Z,11.76
2023-03-20T07:24:56.376Z,11.82
2023-03-20T07:25:59.882Z,11.86
2023-03-20T07:27:02.692Z,11.90
2023-03-20T07:28:06.522Z,12.00
2023-03-20T07:29:09.297Z,12.06
2023-03-20T07:30:12.769Z,12.13
2023-03-20T07:31:27.420Z,12.19
2023-03-20T07:32:30.067Z,12.29
2023-03-20T07:33:33.012Z,12.33
2023-03-20T07:34:38.944Z,12.40
2023-03-20T07:35:41.643Z,12.44
2023-03-20T07:36:44.310Z,12.50
2023-03-20T07:37:46.993Z,12.54
2023-03-20T07:38:49.685Z,12.58
2023-03-20T07:39:52.286Z,12.62
2023-03-20T07:40:56.377Z,12.65
2023-03-20T07:41:59.062Z,12.72
2023-03-20T07:43:02.395Z,12.78
2023-03-20T07:44:05.109Z,12.81
2023-03-20T07:45:08.912Z,12.84
2023-03-20T07:46:11.842Z,12.89
2023-03-20T07:47:14.643Z,12.93
2023-03-20T07:48:17.508Z,12.99
2023-03-20T07:49:20.739Z,13.03
2023-03-20T07:50:23.416Z,13.05
2023-03-20T07:51:26.704Z,13.13
2023-03-20T07:52:29.354Z,13.17
2023-03-20T07:53:32.021Z,13.26
2023-03-20T07:54:34.694Z,13.30
2023-03-20T07:55:37.718Z,13.35
2023-03-20T07:56:40.509Z,13.35
2023-03-20T07:57:43.373Z,13.39
2023-03-20T07:58:46.214Z,13.44
2023-03-20T07:59:48.839Z,13.50
2023-03-20T08:00:51.609Z,13.54
2023-03-20T08:01:54.276Z,13.63
2023-03-20T08:02:58.144Z,13.67
2023-03-20T08:04:01.081Z,13.73
2023-03-20T08:05:04.221Z,13.79
2023-03-20T08:06:08.748Z,13.88
2023-03-20T08:07:11.975Z,13.92
2023-03-20T08:08:14.834Z,14.02
2023-03-20T08:09:18.529Z,14.08
2023-03-20T08:10:21.344Z,14.18
2023-03-20T08:11:24.026Z,14.26
2023-03-20T08:12:27.066Z,14.33
2023-03-20T08:13:29.698Z,14.40
2023-03-20T08:14:32.830Z,14.46
2023-03-20T08:15:35.793Z,14.53
2023-03-20T08:16:38.748Z,14.62
2023-03-20T08:17:47.733Z,14.66
2023-03-20T08:18:51.812Z,14.73
2023-03-20T08:19:54.505Z,14.80
2023-03-20T08:20:57.401Z,14.84
2023-03-20T08:22:00.062Z,14.91
2023-03-20T08:23:02.967Z,14.94
2023-03-20T08:24:05.907Z,15.01
2023-03-20T08:25:09.626Z,15.08
2023-03-20T08:26:12.296Z,15.14
2023-03-20T08:27:15.094Z,15.17
2023-03-20T08:28:18.259Z,15.17
2023-03-20T08:29:21.076Z,15.21
2023-03-20T08:30:23.726Z,15.30
2023-03-20T08:31:26.388Z,15.31
2023-03-20T08:32:29.090Z,15.38
2023-03-20T08:33:31.856Z,15.43
2023-03-20T08:34:34.714Z,15.48
2023-03-20T08:35:37.860Z,15.53
2023-03-20T08:36:43.315Z,15.59
2023-03-20T08:37:45.954Z,15.65
2023-03-20T08:38:50.144Z,15.70
2023-03-20T08:39:52.779Z,15.70
2023-03-20T08:40:55.922Z,15.74
2023-03-20T08:42:00.846Z,15.78
2023-03-20T08:43:04.886Z,15.80
2023-03-20T08:44:07.657Z,15.80
2023-03-20T08:45:10.788Z,15.79
2023-03-20T08:46:13.755Z,15.83
2023-03-20T08:47:17.324Z,15.82
2023-03-20T08:48:20.042Z,15.79
2023-03-20T08:49:22.859Z,15.79
2023-03-20T08:50:25.591Z,15.79
2023-03-20T08:51:28.769Z,15.83
2023-03-20T08:52:31.427Z,15.86
2023-03-20T08:53:34.160Z,15.90
2023-03-20T08:54:36.875Z,15.91
2023-03-20T08:55:39.508Z,15.97
2023-03-20T08:56:42.133Z,16.03
2023-03-20T08:57:45.203Z,16.07
2023-03-20T08:58:47.891Z,16.09
2023-03-20T08:59:50.555Z,16.11
2023-03-20T09:00:53.196Z,16.16
2023-03-20T09:01:55.882Z,16.21
2023-03-20T09:02:58.630Z,16.24
2023-03-20T09:04:01.654Z,16.25
2023-03-20T09:05:04.689Z,16.25
2023-03-20T09:06:09.359Z,16.28
2023-03-20T09:07:12.240Z,16.27
2023-03-20T09:08:15.385Z,16.28
2023-03-20T09:09:20.597Z,16.34
2023-03-20T09:10:23.616Z,16.32
2023-03-20T09:11:26.443Z,16.37
2023-03-20T09:12:29.316Z,16.35
2023-03-20T09:13:32.115Z,16.37
2023-03-20T09:14:34.816Z,16.38
2023-03-20T09:15:38.489Z,16.41
2023-03-20T09:16:41.376Z,16.41
2023-03-20T09:17:44.074Z,16.47
2023-03-20T09:18:46.859Z,16.51
2023-03-20T09:19:49.687Z,16.57
2023-03-20T09:20:52.646Z,16.62
2023-03-20T09:21:55.305Z,16.65
2023-03-20T09:22:58.250Z,16.69
2023-03-20T09:24:00.986Z,16.67
2023-03-20T09:25:03.842Z,16.68
2023-03-20T09:26:06.974Z,16.69
2023-03-20T09:27:09.790Z,16.69
2023-03-20T09:28:12.488Z,16.73
2023-03-20T09:29:15.135Z,16.78
2023-03-20T09:30:18.186Z,16.78
2023-03-20T09:31:20.973Z,16.83
2023-03-20T09:32:23.691Z,16.86
2023-03-20T09:33:27.115Z,16.86
2023-03-20T09:34:31.044Z,16.90
2023-03-20T09:35:34.198Z,16.90
2023-03-20T09:36:36.886Z,16.93
2023-03-20T09:37:39.585Z,16.97
2023-03-20T09:38:43.218Z,17.03
2023-03-20T09:39:45.828Z,16.99
2023-03-20T09:40:58.533Z,17.03
2023-03-20T09:42:22.688Z,17.03
2023-03-20T09:43:28.510Z,17.09
2023-03-20T09:45:02.653Z,17.12
2023-03-20T09:46:25.329Z,17.09
2023-03-20T09:47:44.856Z,17.10
2023-03-20T09:48:59.467Z,17.16
2023-03-20T09:50:33.358Z,17.20
2023-03-20T09:51:42.978Z,17.23
2023-03-20T09:52:54.848Z,17.22
2023-03-20T09:54:02.565Z,17.19
2023-03-20T09:55:14.937Z,17.22
2023-03-20T09:56:28.733Z,17.23
2023-03-20T09:57:46.977Z,17.24
2023-03-20T09:59:04.543Z,17.23
2023-03-20T10:00:17.911Z,17.24
2023-03-20T10:01:22.042Z,17.23
2023-03-20T10:02:55.495Z,17.24
2023-03-20T10:04:10.385Z,17.24
2023-03-20T10:05:50.241Z,17.28
2023-03-20T10:06:53.139Z,17.34
2023-03-20T10:07:58.435Z,17.38
2023-03-20T10:09:01.366Z,17.36
2023-03-20T10:10:04.624Z,17.36
2023-03-20T10:11:26.173Z,17.37
2023-03-20T10:13:03.535Z,17.41
2023-03-20T10:14:36.710Z,17.47
2023-03-20T10:16:03.579Z,17.51
2023-03-20T10:17:08.910Z,17.51
2023-03-20T10:18:21.997Z,17.48
2023-03-20T10:19:31.068Z,17.53
2023-03-20T10:20:41.278Z,17.54
2023-03-20T10:21:50.492Z,17.50
2023-03-20T10:22:59.138Z,17.51
2023-03-20T10:24:07.588Z,17.50
2023-03-20T10:25:10.307Z,17.53
2023-03-20T10:26:20.171Z,17.60
2023-03-20T10:27:28.433Z,17.58
2023-03-20T10:28:36.841Z,17.67
2023-03-20T10:30:03.794Z,17.70
2023-03-20T10:31:22.282Z,17.70
2023-03-20T10:32:34.052Z,17.74
2023-03-20T10:33:57.634Z,17.77
2023-03-20T10:35:20.489Z,17.78
2023-03-20T10:36:29.212Z,17.81
2023-03-20T10:38:03.198Z,17.81
2023-03-20T10:39:24.945Z,17.84
2023-03-20T10:40:31.388Z,17.85
2023-03-20T10:41:37.700Z,17.86
2023-03-20T10:42:44.638Z,17.86
2023-03-20T10:43:50.533Z,17.92
2023-03-20T10:44:59.739Z,17.96
2023-03-20T10:46:17.853Z,17.98
2023-03-20T10:47:24.196Z,18.01
2023-03-20T10:48:48.981Z,18.04
2023-03-20T10:49:59.429Z,18.08
2023-03-20T10:51:04.233Z,18.04
2023-03-20T10:52:14.396Z,18.02
2023-03-20T10:53:50.498Z,18.08
2023-03-20T10:55:01.944Z,18.09
2023-03-20T10:56:10.233Z,18.08
2023-03-20T10:57:23.388Z,18.12
2023-03-20T10:58:29.589Z,18.10
2023-03-20T10:59:42.040Z,18.13
2023-03-20T11:00:45.085Z,18.17
2023-03-20T11:01:47.772Z,18.22
2023-03-20T11:02:50.477Z,18.19
2023-03-20T11:03:53.571Z,18.23
2023-03-20T11:04:56.330Z,18.29
2023-03-20T11:06:10.586Z,18.33
2023-03-20T11:07:16.400Z,18.36
2023-03-20T11:08:25.605Z,18.34
2023-03-20T11:09:30.857Z,18.39
2023-03-20T11:10:37.412Z,18.43
2023-03-20T11:11:45.434Z,18.42
2023-03-20T11:12:50.051Z,18.43
2023-03-20T11:13:53.487Z,18.44
2023-03-20T11:15:01.613Z,18.44
2023-03-20T11:16:27.520Z,18.40
2023-03-20T11:17:30.702Z,18.43
2023-03-20T11:18:33.333Z,18.44
2023-03-20T11:19:41.919Z,18.44
2023-03-20T11:20:59.704Z,18.42
2023-03-20T11:22:22.828Z,18.37
2023-03-20T11:23:31.312Z,18.42
2023-03-20T11:24:47.336Z,18.40
2023-03-20T11:25:54.348Z,18.42
2023-03-20T11:27:10.640Z,18.36
2023-03-20T11:28:38.015Z,18.32
2023-03-20T11:29:45.613Z,18.33
2023-03-20T11:31:04.078Z,18.30
2023-03-20T11:32:32.283Z,18.34
2023-03-20T11:33:39.416Z,18.42
2023-03-20T11:34:44.428Z,18.43
2023-03-20T11:35:48.739Z,18.42
2023-03-20T11:37:16.441Z,18.43
2023-03-20T11:38:22.707Z,18.44
2023-03-20T11:39:35.201Z,18.43
2023-03-20T11:40:38.817Z,18.43
2023-03-20T11:42:01.550Z,18.39
2023-03-20T11:43:13.263Z,18.40
2023-03-20T11:44:32.112Z,18.39
2023-03-20T11:45:59.200Z,18.37
2023-03-20T11:47:06.289Z,18.42
2023-03-20T11:48:19.330Z,18.40
2023-03-20T11:49:28.572Z,18.29
2023-03-20T11:50:35.642Z,18.32
2023-03-20T11:51:39.205Z,18.29
2023-03-20T11:52:41.964Z,18.30
2023-03-20T11:54:07.130Z,18.26
2023-03-20T11:55:34.577Z,18.30
2023-03-20T11:56:40.752Z,18.26
2023-03-20T11:57:46.854Z,18.33
2023-03-20T11:59:07.940Z,18.32
2023-03-20T12:00:21.484Z,18.36
2023-03-20T12:01:24.772Z,18.42
2023-03-20T12:02:28.249Z,18.44
2023-03-20T12:03:44.602Z,18.49
2023-03-20T12:04:48.566Z,18.53
2023-03-20T12:05:52.753Z,18.56
2023-03-20T12:07:02.529Z,18.54
2023-03-20T12:08:13.903Z,18.53
2023-03-20T12:09:33.688Z,18.54
2023-03-20T12:10:47.179Z,18.57
2023-03-20T12:11:55.856Z,18.57
2023-03-20T12:13:07.678Z,18.64
2023-03-20T12:14:36.877Z,18.63
2023-03-20T12:15:43.618Z,18.65
2023-03-20T12:16:49.546Z,18.64
2023-03-20T12:18:03.886Z,18.61
2023-03-20T12:19:20.208Z,18.67
2023-03-20T12:20:47.654Z,18.70
2023-03-20T12:21:56.974Z,18.61
2023-03-20T12:23:13.282Z,18.59
2023-03-20T12:24:33.039Z,18.54
2023-03-20T12:25:48.630Z,18.54
2023-03-20T12:27:08.215Z,18.53
2023-03-20T12:28:31.870Z,18.53
2023-03-20T12:29:44.283Z,18.52
2023-03-20T12:31:09.046Z,18.47
2023-03-20T12:32:22.420Z,18.50
2023-03-20T12:33:49.464Z,18.50
2023-03-20T12:34:59.926Z,18.49
2023-03-20T12:36:04.892Z,18.46
2023-03-20T12:37:12.147Z,18.47
2023-03-20T12:38:25.691Z,18.46
2023-03-20T12:39:36.377Z,18.49
2023-03-20T12:40:46.695Z,18.49
2023-03-20T12:42:23.481Z,18.50
2023-03-20T12:43:28.721Z,18.42
2023-03-20T12:44:46.378Z,18.44
2023-03-20T12:46:10.536Z,18.44
2023-03-20T12:47:24.105Z,18.44
2023-03-20T12:48:56.217Z,18.39
2023-03-20T12:50:21.060Z,18.43
2023-03-20T12:51:32.471Z,18.49
2023-03-20T12:52:50.567Z,18.49
2023-03-20T12:54:12.174Z,18.52
2023-03-20T12:55:32.667Z,18.57
2023-03-20T12:56:50.109Z,18.59
2023-03-20T12:57:58.614Z,18.60
2023-03-20T12:59:33.408Z,18.57
2023-03-20T13:00:39.331Z,18.59
2023-03-20T13:01:57.835Z,18.57
2023-03-20T13:03:29.737Z,18.59
2023-03-20T13:05:03.140Z,18.57
2023-03-20T13:06:22.102Z,18.56
2023-03-20T13:07:46.579Z,18.56
2023-03-20T13:09:09.567Z,18.61
2023-03-20T13:10:22.175Z,18.67
2023-03-20T13:11:44.030Z,18.68
2023-03-20T13:12:47.006Z,18.74
2023-03-20T13:14:23.567Z,18.80
2023-03-20T13:16:07.450Z,18.78
2023-03-20T13:17:32.203Z,18.81
2023-03-20T13:18:55.627Z,18.84
2023-03-20T13:20:04.171Z,18.88
2023-03-20T13:21:31.258Z,18.83
2023-03-20T13:23:09.228Z,18.85
2023-03-20T13:24:24.027Z,18.87
2023-03-20T13:26:01.843Z,18.90
2023-03-20T13:27:28.612Z,18.92
2023-03-20T13:29:03.615Z,18.85
2023-03-20T13:30:22.329Z,18.88
2023-03-20T13:31:50.513Z,18.85
2023-03-20T13:33:15.796Z,18.84
2023-03-20T13:34:28.372Z,18.84
2023-03-20T13:35:47.144Z,18.87
2023-03-20T13:37:25.273Z,18.88
2023-03-20T13:38:32.528Z,18.84
2023-03-20T13:39:41.217Z,18.85
2023-03-20T13:40:47.216Z,18.87
2023-03-20T13:41:50.592Z,18.87
2023-03-20T13:43:11.594Z,18.85
2023-03-20T13:44:18.153Z,18.83
2023-03-20T13:45:44.552Z,18.84
2023-03-20T13:46:53.068Z,18.84
2023-03-20T13:47:56.488Z,18.83
2023-03-20T13:49:08.619Z,18.83
2023-03-20T13:50:14.136Z,18.83
2023-03-20T13:51:32.527Z,18.83
2023-03-20T13:52:46.678Z,18.74
2023-03-20T13:53:58.773Z,18.78
2023-03-20T13:55:12.601Z,18.77
2023-03-20T13:56:24.989Z,18.74
2023-03-20T13:57:48.087Z,18.74
2023-03-20T14:25:45.064Z,18.26
2023-03-20T14:26:55.748Z,18.28
2023-03-20T14:28:11.184Z,18.29
2023-03-20T14:29:14.798Z,18.30
2023-03-20T14:30:37.709Z,18.26
2023-03-20T14:31:43.159Z,18.29
2023-03-20T14:33:07.050Z,18.25
2023-03-20T14:34:10.828Z,18.22
2023-03-20T14:35:23.766Z,18.22
2023-03-20T14:36:41.844Z,18.22
2023-03-20T14:38:02.350Z,18.23
2023-03-20T14:39:16.998Z,18.19
2023-03-20T14:40:25.586Z,18.19
2023-03-20T14:41:53.046Z,18.21
2023-03-20T14:43:36.716Z,18.23
2023-03-20T14:44:51.026Z,18.26
2023-03-20T14:45:58.503Z,18.29
2023-03-20T14:47:23.799Z,18.30
2023-03-20T14:48:33.828Z,18.34
2023-03-20T14:49:51.330Z,18.36
2023-03-20T14:50:57.175Z,18.34
2023-03-20T14:52:22.280Z,18.36
2023-03-20T14:53:27.583Z,18.36
2023-03-20T14:54:31.949Z,18.37
2023-03-20T14:55:49.561Z,18.44
2023-03-20T14:56:53.940Z,18.46
2023-03-20T14:57:57.500Z,18.47
2023-03-20T14:59:07.454Z,18.49
2023-03-20T15:00:23.952Z,18.50
2023-03-20T15:01:36.943Z,18.50
2023-03-20T15:02:39.803Z,18.47
2023-03-20T15:03:45.304Z,18.49
2023-03-20T15:04:48.208Z,18.47
2023-03-20T15:05:58.997Z,18.47
2023-03-20T15:07:11.484Z,18.47
2023-03-20T15:08:26.231Z,18.43
2023-03-20T15:09:30.980Z,18.40
2023-03-20T15:10:38.668Z,18.40
2023-03-20T15:11:44.351Z,18.37
2023-03-20T15:12:47.796Z,18.37
2023-03-20T15:13:52.014Z,18.39
2023-03-20T15:14:59.357Z,18.37
2023-03-20T15:16:08.284Z,18.33
2023-03-20T15:17:25.067Z,18.29
2023-03-20T15:18:28.838Z,18.32
2023-03-20T15:19:34.596Z,18.33